Time;durP1;ratioP1;P1;durP2;ratioP2;P2;SDS_P1;SDS_P2;PMS_P1;PMS_P2;Temp;Humidity;BMP_temperature;BMP_pressure;BME280_temperature;BME280_humidity;BME280_pressure;Samples;Min_cycle;Max_cycle;Signal;HPM_P1;HPM_P2
2023/02/08 00:01:08;;;;;;;31.50;17.88;;;;;;;;;;5098092;28;20882;-71
2023/02/08 00:03:35;;;;;;;38.85;22.00;;;;;;;;;;5098489;28;20039;-71
2023/02/08 00:06:01;;;;;;;37.40;21.08;;;;;;;;;;5099980;28;20039;-69
2023/02/08 00:08:27;;;;;;;33.70;19.50;;;;;;;;;;5061569;28;20051;-71
2023/02/08 00:10:53;;;;;;;40.25;19.75;;;;;;;;;;5095464;28;20047;-71
2023/02/08 00:13:20;;;;;;;35.83;20.70;;;;;;;;;;5098258;28;20429;-71
2023/02/08 00:15:46;;;;;;;37.65;20.08;;;;;;;;;;5089790;28;20050;-71
2023/02/08 00:18:13;;;;;;;39.65;20.40;;;;;;;;;;5082356;28;20561;-71
2023/02/08 00:20:40;;;;;;;35.33;21.92;;;;;;;;;;5082687;28;20119;-71
2023/02/08 00:23:06;;;;;;;36.80;20.45;;;;;;;;;;5082809;28;20100;-71
2023/02/08 00:25:32;;;;;;;37.70;20.75;;;;;;;;;;5097624;28;20062;-71
2023/02/08 00:27:58;;;;;;;35.00;20.23;;;;;;;;;;5080754;28;20040;-71
2023/02/08 00:30:25;;;;;;;36.60;20.35;;;;;;;;;;5077804;28;20054;-71
2023/02/08 00:32:51;;;;;;;32.90;19.40;;;;;;;;;;5097657;28;20457;-71
2023/02/08 00:35:17;;;;;;;38.10;21.38;;;;;;;;;;5098951;28;20036;-71
2023/02/08 00:37:43;;;;;;;35.42;21.40;;;;;;;;;;5097656;28;20413;-71
2023/02/08 00:40:10;;;;;;;34.92;20.35;;;;;;;;;;5077767;28;20897;-71
2023/02/08 00:42:36;;;;;;;33.42;19.40;;;;;;;;;;5095162;28;20062;-71
2023/02/08 00:45:02;;;;;;;37.00;20.33;;;;;;;;;;5100126;28;20119;-71
2023/02/08 00:47:28;;;;;;;33.33;19.67;;;;;;;;;;5095497;28;20447;-71
2023/02/08 00:49:54;;;;;;;33.70;18.70;;;;;;;;;;5098785;28;20062;-71
2023/02/08 00:52:21;;;;;;;32.97;19.55;;;;;;;;;;5100279;28;20039;-71
2023/02/08 00:54:47;;;;;;;37.60;19.60;;;;;;;;;;5078849;28;20081;-71
2023/02/08 00:57:14;;;;;;;39.35;20.38;;;;;;;;;;5098020;28;20538;-71
2023/02/08 00:59:40;;;;;;;30.40;18.85;;;;;;;;;;5080028;28;20131;-71
2023/02/08 01:02:06;;;;;;;35.95;18.52;;;;;;;;;;5096808;28;20368;-71
2023/02/08 01:04:33;;;;;;;34.60;19.08;;;;;;;;;;5097215;28;20059;-71
2023/02/08 01:06:59;;;;;;;31.10;17.48;;;;;;;;;;5099185;28;20048;-71
2023/02/08 01:09:25;;;;;;;29.77;18.95;;;;;;;;;;5098786;28;20082;-71
2023/02/08 01:11:51;;;;;;;34.85;18.77;;;;;;;;;;5100336;28;20503;-71
2023/02/08 01:14:17;;;;;;;32.17;17.65;;;;;;;;;;5076138;28;20044;-71
2023/02/08 01:16:43;;;;;;;35.88;18.17;;;;;;;;;;5078348;28;21235;-71
2023/02/08 01:19:10;;;;;;;35.65;19.70;;;;;;;;;;5097513;28;20070;-71
2023/02/08 01:21:37;;;;;;;33.58;18.98;;;;;;;;;;5099449;28;20044;-71
2023/02/08 01:24:04;;;;;;;28.77;16.40;;;;;;;;;;5095911;28;20067;-71
2023/02/08 01:26:30;;;;;;;28.98;16.95;;;;;;;;;;5097278;28;20408;-71
2023/02/08 01:28:56;;;;;;;29.70;16.88;;;;;;;;;;5099652;28;20040;-70
2023/02/08 01:31:26;;;;;;;31.42;17.88;;;;;;;;;;5097751;28;20051;-71
2023/02/08 01:33:53;;;;;;;28.90;16.42;;;;;;;;;;5098100;28;20498;-71
2023/02/08 01:36:19;;;;;;;31.33;18.58;;;;;;;;;;5097574;28;20680;-71
2023/02/08 01:38:45;;;;;;;32.85;18.52;;;;;;;;;;5100901;28;20036;-71
2023/02/08 01:41:17;;;;;;;37.53;19.30;;;;;;;;;;5102904;28;20088;-71
2023/02/08 01:43:59;;;;;;;30.02;18.23;;;;;;;;;;5095218;28;20127;-71
2023/02/08 01:46:25;;;;;;;32.40;18.63;;;;;;;;;;5082551;28;20043;-71
2023/02/08 01:48:52;;;;;;;35.92;20.33;;;;;;;;;;5080419;28;20492;-71
2023/02/08 01:51:20;;;;;;;32.33;19.13;;;;;;;;;;5075294;28;20055;-71
2023/02/08 01:53:47;;;;;;;31.38;19.08;;;;;;;;;;5079698;28;20051;-71
2023/02/08 01:56:17;;;;;;;36.90;20.05;;;;;;;;;;5093418;28;20039;-71
2023/02/08 01:58:45;;;;;;;39.92;20.73;;;;;;;;;;5098353;28;20043;-71
2023/02/08 02:01:13;;;;;;;33.05;19.83;;;;;;;;;;5096581;28;20039;-71
2023/02/08 02:03:39;;;;;;;32.63;18.65;;;;;;;;;;5096157;28;20043;-71
2023/02/08 02:06:08;;;;;;;31.90;18.80;;;;;;;;;;5097236;28;20051;-71
2023/02/08 02:08:35;;;;;;;37.47;20.38;;;;;;;;;;5096145;28;20376;-71
2023/02/08 02:11:02;;;;;;;33.42;19.10;;;;;;;;;;5096662;28;20040;-71
2023/02/08 02:13:28;;;;;;;32.20;19.48;;;;;;;;;;5097955;28;20104;-71
2023/02/08 02:15:54;;;;;;;33.47;18.80;;;;;;;;;;5096899;28;20040;-71
2023/02/08 02:18:24;;;;;;;30.48;17.45;;;;;;;;;;5090341;28;20086;-71
2023/02/08 02:20:57;;;;;;;30.67;18.48;;;;;;;;;;5077885;28;20130;-71
2023/02/08 02:23:24;;;;;;;31.15;18.13;;;;;;;;;;5095240;28;20036;-71
2023/02/08 02:26:02;;;;;;;29.73;17.42;;;;;;;;;;5092144;28;20493;-71
2023/02/08 02:28:47;;;;;;;29.35;18.10;;;;;;;;;;5094389;28;20075;-71
2023/02/08 02:31:14;;;;;;;31.13;17.90;;;;;;;;;;5080875;28;20209;-71
2023/02/08 02:33:40;;;;;;;34.95;19.58;;;;;;;;;;5078501;28;20039;-71
2023/02/08 02:36:13;;;;;;;37.15;20.00;;;;;;;;;;5096965;28;20041;-71
2023/02/08 02:38:47;;;;;;;36.50;18.90;;;;;;;;;;5097447;28;20092;-71
2023/02/08 02:44:21;;;;;;;34.72;19.17;;;;;;;;;;5096199;28;20048;-71
2023/02/08 02:46:52;;;;;;;29.90;18.33;;;;;;;;;;5094756;28;20035;-71
2023/02/08 02:49:19;;;;;;;29.33;17.60;;;;;;;;;;5100260;28;20044;-71
2023/02/08 02:51:48;;;;;;;32.53;18.35;;;;;;;;;;5099355;28;20046;-71
2023/02/08 02:54:27;;;;;;;31.30;18.40;;;;;;;;;;5096733;28;20066;-71
2023/02/08 02:56:56;;;;;;;32.85;19.85;;;;;;;;;;5094680;28;20101;-71
2023/02/08 02:59:23;;;;;;;30.95;17.75;;;;;;;;;;5080049;28;20047;-71
2023/02/08 03:01:49;;;;;;;33.38;18.45;;;;;;;;;;5093317;28;20043;-71
2023/02/08 03:04:33;;;;;;;29.77;18.08;;;;;;;;;;5096054;28;20123;-71
2023/02/08 03:07:17;;;;;;;28.02;17.25;;;;;;;;;;5093295;28;20055;-71
2023/02/08 03:09:47;;;;;;;32.83;18.42;;;;;;;;;;5097740;28;20444;-71
2023/02/08 03:12:21;;;;;;;38.33;18.23;;;;;;;;;;5098629;28;20036;-71
2023/02/08 03:14:57;;;;;;;28.75;18.50;;;;;;;;;;5093920;28;20084;-71
2023/02/08 03:17:34;;;;;;;30.30;18.92;;;;;;;;;;5097344;28;20046;-71
2023/02/08 03:20:08;;;;;;;35.38;19.95;;;;;;;;;;5103165;28;20045;-71
2023/02/08 03:22:44;;;;;;;28.25;17.85;;;;;;;;;;5081982;28;20039;-71
2023/02/08 03:25:14;;;;;;;31.15;18.98;;;;;;;;;;5093264;28;20044;-71
2023/02/08 03:27:48;;;;;;;28.15;17.88;;;;;;;;;;5098768;28;20376;-71
2023/02/08 03:30:16;;;;;;;28.08;17.90;;;;;;;;;;5097101;28;20051;-70
2023/02/08 03:32:54;;;;;;;31.05;18.33;;;;;;;;;;5097512;28;20047;-71
2023/02/08 03:35:25;;;;;;;34.88;18.45;;;;;;;;;;5093780;28;20392;-71
2023/02/08 03:37:59;;;;;;;29.75;17.63;;;;;;;;;;5053477;28;20047;-71
2023/02/08 03:40:28;;;;;;;28.58;17.67;;;;;;;;;;5096494;28;20040;-71
2023/02/08 03:42:56;;;;;;;30.30;17.08;;;;;;;;;;5077982;28;20427;-71
2023/02/08 03:45:26;;;;;;;30.38;17.65;;;;;;;;;;5101363;28;20571;-71
2023/02/08 03:47:54;;;;;;;27.75;16.48;;;;;;;;;;5095551;28;20185;-71
2023/02/08 03:50:21;;;;;;;32.22;18.63;;;;;;;;;;5097156;28;20052;-71
2023/02/08 03:52:48;;;;;;;28.13;17.20;;;;;;;;;;5081684;28;20625;-71
2023/02/08 03:55:19;;;;;;;30.17;18.05;;;;;;;;;;5079362;28;20050;-71
2023/02/08 03:57:49;;;;;;;27.90;17.55;;;;;;;;;;5096801;28;20051;-71
2023/02/08 04:00:16;;;;;;;31.30;18.40;;;;;;;;;;5099233;28;20067;-71
2023/02/08 04:02:48;;;;;;;28.23;17.52;;;;;;;;;;5099259;28;20473;-71
2023/02/08 04:05:15;;;;;;;30.80;18.67;;;;;;;;;;5100029;28;20040;-71
2023/02/08 04:07:41;;;;;;;30.08;18.92;;;;;;;;;;5079537;28;20040;-71
2023/02/08 04:10:08;;;;;;;31.65;17.92;;;;;;;;;;5098816;28;20075;-71
2023/02/08 04:12:34;;;;;;;30.73;19.48;;;;;;;;;;5100926;28;20514;-71
2023/02/08 04:15:00;;;;;;;30.70;18.15;;;;;;;;;;5100756;28;20117;-71
2023/02/08 04:17:27;;;;;;;30.27;17.73;;;;;;;;;;5087120;28;20040;-71
2023/02/08 04:19:53;;;;;;;32.03;18.90;;;;;;;;;;5100238;28;20040;-71
2023/02/08 04:22:19;;;;;;;27.92;17.63;;;;;;;;;;5082074;28;20102;-71
2023/02/08 04:24:45;;;;;;;29.48;18.63;;;;;;;;;;5095805;28;20051;-71
2023/02/08 04:27:11;;;;;;;33.53;18.40;;;;;;;;;;5080980;28;20127;-71
2023/02/08 04:29:37;;;;;;;29.55;17.67;;;;;;;;;;5097086;28;20039;-71
2023/02/08 04:32:04;;;;;;;29.30;17.52;;;;;;;;;;5095782;28;20054;-71
2023/02/08 04:34:30;;;;;;;30.77;18.42;;;;;;;;;;5099334;28;20511;-71
2023/02/08 04:36:56;;;;;;;27.88;18.08;;;;;;;;;;5096088;28;20082;-71
2023/02/08 04:39:22;;;;;;;33.92;19.98;;;;;;;;;;5098131;28;20043;-71
2023/02/08 04:41:48;;;;;;;30.27;17.77;;;;;;;;;;5096250;28;20050;-71
2023/02/08 04:44:14;;;;;;;30.60;17.92;;;;;;;;;;5099077;28;20112;-71
2023/02/08 04:46:40;;;;;;;31.80;18.88;;;;;;;;;;5102130;28;20432;-71
2023/02/08 04:49:07;;;;;;;29.40;18.58;;;;;;;;;;5099402;28;20176;-71
2023/02/08 04:51:33;;;;;;;31.17;19.00;;;;;;;;;;5099517;28;20047;-71
2023/02/08 04:53:59;;;;;;;30.60;17.83;;;;;;;;;;5082557;28;21229;-71
2023/02/08 04:56:25;;;;;;;34.17;18.88;;;;;;;;;;5097462;28;20119;-71
2023/02/08 04:58:51;;;;;;;33.38;19.48;;;;;;;;;;5099327;28;20435;-71
2023/02/08 05:01:17;;;;;;;36.67;20.17;;;;;;;;;;5099513;28;20725;-71
2023/02/08 05:03:43;;;;;;;33.22;20.80;;;;;;;;;;5080065;28;20392;-71
2023/02/08 05:06:10;;;;;;;34.67;20.25;;;;;;;;;;5080565;28;20468;-71
2023/02/08 05:08:36;;;;;;;37.60;20.95;;;;;;;;;;5077651;28;20052;-71
2023/02/08 05:11:02;;;;;;;42.72;20.17;;;;;;;;;;5099697;28;20058;-71
2023/02/08 05:13:28;;;;;;;40.10;20.92;;;;;;;;;;5098232;28;20123;-71
2023/02/08 05:15:54;;;;;;;36.47;20.33;;;;;;;;;;5101360;28;20043;-71
2023/02/08 05:18:21;;;;;;;33.15;19.42;;;;;;;;;;5082075;28;20050;-71
2023/02/08 05:20:53;;;;;;;40.40;21.40;;;;;;;;;;5099195;28;20070;-71
2023/02/08 05:23:19;;;;;;;34.42;20.13;;;;;;;;;;5076465;28;20039;-71
2023/02/08 05:25:46;;;;;;;35.08;20.80;;;;;;;;;;5099290;28;20051;-71
2023/02/08 05:28:12;;;;;;;34.75;20.42;;;;;;;;;;5096673;28;20047;-71
2023/02/08 05:30:38;;;;;;;33.15;19.92;;;;;;;;;;5097171;28;20063;-71
2023/02/08 05:33:04;;;;;;;35.50;20.98;;;;;;;;;;5098475;28;20120;-69
2023/02/08 05:35:30;;;;;;;35.33;19.98;;;;;;;;;;5079045;28;20134;-70
2023/02/08 05:37:56;;;;;;;34.65;21.83;;;;;;;;;;5080482;28;20036;-70
2023/02/08 05:40:22;;;;;;;33.25;19.98;;;;;;;;;;5098092;28;20066;-70
2023/02/08 05:42:49;;;;;;;33.35;20.20;;;;;;;;;;5101626;28;20087;-71
2023/02/08 05:45:16;;;;;;;33.20;19.77;;;;;;;;;;5075390;28;20047;-71
2023/02/08 05:47:42;;;;;;;34.03;18.77;;;;;;;;;;5096423;28;20101;-71
2023/02/08 05:50:09;;;;;;;34.08;19.55;;;;;;;;;;5093406;28;20466;-71
2023/02/08 05:52:35;;;;;;;34.03;20.55;;;;;;;;;;5094197;28;20138;-71
2023/02/08 05:55:01;;;;;;;32.80;20.67;;;;;;;;;;5103666;28;20387;-71
2023/02/08 05:57:27;;;;;;;36.20;20.30;;;;;;;;;;5100658;28;20437;-71
2023/02/08 05:59:53;;;;;;;35.67;20.65;;;;;;;;;;5097685;28;20047;-71
2023/02/08 06:02:19;;;;;;;30.98;19.52;;;;;;;;;;5093853;28;20085;-70
2023/02/08 06:04:46;;;;;;;33.67;20.13;;;;;;;;;;5095021;28;20165;-70
2023/02/08 06:07:12;;;;;;;31.15;19.52;;;;;;;;;;5079352;28;20043;-70
2023/02/08 06:09:38;;;;;;;33.55;20.95;;;;;;;;;;5098092;28;20120;-71
2023/02/08 06:12:04;;;;;;;36.13;19.50;;;;;;;;;;5094674;28;20058;-71
2023/02/08 06:14:31;;;;;;;34.17;20.17;;;;;;;;;;5079657;28;20047;-71
2023/02/08 06:16:57;;;;;;;32.10;20.27;;;;;;;;;;5100333;28;20127;-71
2023/02/08 06:19:23;;;;;;;33.00;20.30;;;;;;;;;;5093594;28;20040;-71
2023/02/08 06:21:49;;;;;;;32.70;20.30;;;;;;;;;;5103662;28;20051;-70
2023/02/08 06:24:15;;;;;;;34.97;21.10;;;;;;;;;;5093625;28;20044;-70
2023/02/08 06:26:42;;;;;;;35.55;21.77;;;;;;;;;;5080563;28;20039;-70
2023/02/08 06:29:08;;;;;;;36.10;20.38;;;;;;;;;;5101052;28;20436;-70
2023/02/08 06:31:34;;;;;;;36.63;22.92;;;;;;;;;;5097804;28;20055;-69
2023/02/08 06:34:00;;;;;;;41.28;23.65;;;;;;;;;;5098286;28;20039;-70
2023/02/08 06:36:26;;;;;;;37.92;22.45;;;;;;;;;;5079993;28;20046;-70
2023/02/08 06:38:52;;;;;;;40.60;22.55;;;;;;;;;;5096267;28;20043;-70
2023/02/08 06:41:19;;;;;;;38.33;22.90;;;;;;;;;;5099001;28;20126;-70
2023/02/08 06:43:45;;;;;;;37.20;21.95;;;;;;;;;;5081767;28;20062;-71
2023/02/08 06:46:11;;;;;;;33.58;21.20;;;;;;;;;;5070753;28;20515;-70
2023/02/08 06:48:37;;;;;;;40.00;22.25;;;;;;;;;;5100724;28;20044;-71
2023/02/08 06:51:03;;;;;;;42.65;23.02;;;;;;;;;;5097397;28;20043;-71
2023/02/08 06:53:29;;;;;;;33.55;21.05;;;;;;;;;;5094922;28;20097;-70
2023/02/08 06:55:56;;;;;;;41.33;22.55;;;;;;;;;;5095014;28;20131;-71
2023/02/08 06:58:22;;;;;;;35.65;21.73;;;;;;;;;;5094177;28;20093;-70
2023/02/08 07:00:48;;;;;;;35.15;21.75;;;;;;;;;;5096604;28;20046;-70
2023/02/08 07:03:16;;;;;;;36.13;21.83;;;;;;;;;;5093592;28;20044;-70
2023/02/08 07:05:42;;;;;;;34.13;21.38;;;;;;;;;;5096315;28;20503;-70
2023/02/08 07:08:08;;;;;;;39.15;21.75;;;;;;;;;;5095401;28;20067;-70
2023/02/08 07:10:34;;;;;;;37.55;22.13;;;;;;;;;;5095472;28;20063;-70
2023/02/08 07:13:02;;;;;;;37.65;21.33;;;;;;;;;;5076125;28;20543;-71
2023/02/08 07:15:29;;;;;;;39.20;22.17;;;;;;;;;;5096691;28;20062;-71
2023/02/08 07:17:56;;;;;;;38.55;22.15;;;;;;;;;;5077401;28;20087;-71
2023/02/08 07:20:22;;;;;;;36.92;22.55;;;;;;;;;;5094542;28;20043;-71
2023/02/08 07:22:48;;;;;;;37.65;21.65;;;;;;;;;;5093343;28;20503;-71
2023/02/08 07:25:14;;;;;;;31.80;20.30;;;;;;;;;;5095128;28;20451;-71
2023/02/08 07:27:41;;;;;;;37.97;20.98;;;;;;;;;;5094999;28;20715;-72
2023/02/08 07:30:07;;;;;;;37.47;22.08;;;;;;;;;;5098210;28;20043;-71
2023/02/08 07:32:34;;;;;;;38.45;22.27;;;;;;;;;;5094838;28;20070;-72
2023/02/08 07:35:00;;;;;;;38.80;22.50;;;;;;;;;;5092006;28;20123;-71
2023/02/08 07:37:26;;;;;;;36.45;22.10;;;;;;;;;;5093064;28;20044;-72
2023/02/08 07:39:53;;;;;;;41.28;23.02;;;;;;;;;;5097020;28;20472;-71
2023/02/08 07:42:19;;;;;;;42.13;23.85;;;;;;;;;;5097362;28;20096;-71
2023/02/08 07:44:45;;;;;;;38.42;22.88;;;;;;;;;;5097360;28;20036;-71
2023/02/08 07:47:11;;;;;;;38.65;22.92;;;;;;;;;;5097428;28;20052;-71
2023/02/08 07:49:37;;;;;;;38.47;23.88;;;;;;;;;;5096709;28;20048;-71
2023/02/08 07:52:04;;;;;;;41.10;23.83;;;;;;;;;;5097773;28;20055;-71
2023/02/08 07:54:30;;;;;;;42.25;22.70;;;;;;;;;;5094826;28;20048;-71
2023/02/08 07:56:56;;;;;;;36.58;22.05;;;;;;;;;;5095458;28;20085;-71
2023/02/08 07:59:22;;;;;;;39.85;24.25;;;;;;;;;;5064869;28;20177;-71
2023/02/08 08:01:48;;;;;;;39.28;23.27;;;;;;;;;;5097132;28;20617;-71
2023/02/08 08:04:15;;;;;;;38.10;22.63;;;;;;;;;;5080397;28;20463;-71
2023/02/08 08:06:41;;;;;;;41.30;23.20;;;;;;;;;;5094650;28;20044;-72
2023/02/08 08:09:07;;;;;;;36.85;22.63;;;;;;;;;;5094285;28;20040;-72
2023/02/08 08:11:33;;;;;;;45.38;23.98;;;;;;;;;;5094561;28;20403;-71
2023/02/08 08:13:59;;;;;;;38.55;22.10;;;;;;;;;;5078882;28;20063;-69
2023/02/08 08:16:26;;;;;;;40.80;23.25;;;;;;;;;;5096215;28;20482;-71
2023/02/08 08:18:52;;;;;;;34.78;20.73;;;;;;;;;;5098001;28;20126;-71
2023/02/08 08:21:18;;;;;;;40.15;22.35;;;;;;;;;;5078191;28;20376;-71
2023/02/08 08:23:44;;;;;;;36.50;21.67;;;;;;;;;;5092982;28;20044;-71
2023/02/08 08:26:13;;;;;;;39.20;22.05;;;;;;;;;;5099168;28;20226;-71
2023/02/08 08:28:39;;;;;;;38.67;21.75;;;;;;;;;;5099330;28;20052;-71
2023/02/08 08:31:10;;;;;;;32.88;21.23;;;;;;;;;;5081541;28;20054;-71
2023/02/08 08:33:36;;;;;;;34.33;21.85;;;;;;;;;;5082897;28;20504;-71
2023/02/08 08:36:02;;;;;;;34.10;21.92;;;;;;;;;;5080695;28;20101;-70
2023/02/08 08:38:28;;;;;;;33.15;19.40;;;;;;;;;;5098700;28;20059;-71
2023/02/08 08:40:54;;;;;;;32.22;19.98;;;;;;;;;;5100974;28;20047;-70
2023/02/08 08:43:20;;;;;;;38.40;20.92;;;;;;;;;;5082513;28;20437;-70
2023/02/08 08:45:46;;;;;;;33.72;19.60;;;;;;;;;;5099188;28;20044;-70
2023/02/08 08:48:13;;;;;;;34.45;19.35;;;;;;;;;;5099892;28;20582;-70
2023/02/08 08:50:39;;;;;;;32.28;19.33;;;;;;;;;;5085012;28;20044;-71
2023/02/08 08:53:05;;;;;;;35.05;20.10;;;;;;;;;;5098054;28;20104;-70
2023/02/08 08:55:31;;;;;;;33.92;19.80;;;;;;;;;;5098106;28;20575;-71
2023/02/08 08:57:57;;;;;;;34.95;19.80;;;;;;;;;;5098686;28;20106;-70
2023/02/08 09:00:24;;;;;;;33.92;20.35;;;;;;;;;;5078559;28;20050;-70
2023/02/08 09:02:50;;;;;;;30.05;19.50;;;;;;;;;;5101302;28;20096;-70
2023/02/08 09:05:16;;;;;;;27.77;18.33;;;;;;;;;;5098880;28;20123;-71
2023/02/08 09:07:42;;;;;;;31.45;19.35;;;;;;;;;;5083860;28;20115;-70
2023/02/08 09:10:08;;;;;;;30.75;19.13;;;;;;;;;;5096382;28;20074;-70
2023/02/08 09:12:34;;;;;;;25.85;17.17;;;;;;;;;;5097660;28;20466;-70
2023/02/08 09:15:01;;;;;;;32.58;18.45;;;;;;;;;;5102006;28;20051;-70
2023/02/08 09:17:27;;;;;;;32.03;18.02;;;;;;;;;;5102332;28;20497;-71
2023/02/08 09:19:53;;;;;;;36.05;19.23;;;;;;;;;;5083982;28;20044;-70
2023/02/08 09:22:20;;;;;;;31.58;18.25;;;;;;;;;;5097333;28;20689;-71
2023/02/08 09:24:46;;;;;;;26.27;16.30;;;;;;;;;;5108081;28;20046;-73
2023/02/08 09:27:13;;;;;;;31.20;18.65;;;;;;;;;;5103299;28;20080;-70
2023/02/08 09:29:39;;;;;;;30.58;16.77;;;;;;;;;;5104631;28;20082;-70
2023/02/08 09:32:05;;;;;;;27.30;16.42;;;;;;;;;;5106124;28;20112;-70
2023/02/08 09:34:32;;;;;;;25.58;16.48;;;;;;;;;;5099459;28;20080;-70
2023/02/08 09:36:58;;;;;;;23.40;15.13;;;;;;;;;;5103534;28;20039;-70
2023/02/08 09:39:24;;;;;;;26.65;15.65;;;;;;;;;;5095929;28;20036;-70
2023/02/08 09:41:56;;;;;;;27.80;16.83;;;;;;;;;;5091790;28;20384;-71
2023/02/08 09:44:24;;;;;;;25.88;15.02;;;;;;;;;;5103116;28;20047;-70
2023/02/08 09:46:54;;;;;;;24.98;14.88;;;;;;;;;;5098922;28;20497;-70
2023/02/08 09:49:24;;;;;;;28.58;15.73;;;;;;;;;;5086614;28;20040;-69
2023/02/08 09:51:53;;;;;;;26.35;15.35;;;;;;;;;;5078097;28;20035;-70
2023/02/08 09:54:23;;;;;;;24.35;14.15;;;;;;;;;;5103603;28;20135;-70
2023/02/08 09:56:51;;;;;;;26.50;15.07;;;;;;;;;;5080151;28;20040;-70
2023/02/08 09:59:21;;;;;;;24.02;16.10;;;;;;;;;;5098468;28;20457;-70
2023/02/08 10:01:48;;;;;;;24.85;15.55;;;;;;;;;;5101760;28;20149;-70
2023/02/08 10:04:20;;;;;;;24.77;14.88;;;;;;;;;;5100146;28;20035;-70
2023/02/08 10:06:46;;;;;;;23.70;13.55;;;;;;;;;;5081711;28;20048;-70
2023/02/08 10:09:13;;;;;;;22.05;14.00;;;;;;;;;;5104518;28;20040;-70
2023/02/08 10:11:45;;;;;;;24.88;15.18;;;;;;;;;;5101424;28;20035;-70
2023/02/08 10:14:27;;;;;;;25.00;14.27;;;;;;;;;;5084324;28;20364;-70
2023/02/08 10:17:03;;;;;;;26.48;15.10;;;;;;;;;;5076123;28;20047;-70
2023/02/08 10:19:39;;;;;;;26.40;13.35;;;;;;;;;;5102590;28;20130;-70
2023/02/08 10:22:05;;;;;;;26.00;13.75;;;;;;;;;;5100377;28;21547;-70
2023/02/08 10:24:37;;;;;;;24.35;13.18;;;;;;;;;;5102120;28;20072;-70
2023/02/08 10:27:09;;;;;;;21.75;11.75;;;;;;;;;;5088094;28;20048;-70
2023/02/08 10:29:35;;;;;;;23.60;13.93;;;;;;;;;;5095611;28;20466;-70
2023/02/08 10:32:05;;;;;;;23.33;13.23;;;;;;;;;;5096864;28;20032;-71
2023/02/08 10:34:44;;;;;;;28.60;15.40;;;;;;;;;;5102385;28;20126;-70
2023/02/08 10:37:13;;;;;;;24.40;13.80;;;;;;;;;;5102934;28;20051;-70
2023/02/08 10:39:40;;;;;;;23.48;12.63;;;;;;;;;;5098930;28;20047;-70
2023/02/08 10:42:11;;;;;;;24.23;13.27;;;;;;;;;;5095238;28;20089;-70
2023/02/08 10:44:44;;;;;;;22.75;13.05;;;;;;;;;;5103245;28;20073;-70
2023/02/08 10:47:30;;;;;;;21.58;12.55;;;;;;;;;;5101808;28;20051;-70
2023/02/08 10:50:04;;;;;;;23.35;12.55;;;;;;;;;;5085358;28;20058;-70
2023/02/08 10:52:30;;;;;;;21.80;12.77;;;;;;;;;;5083512;28;20101;-70
2023/02/08 10:54:57;;;;;;;21.02;12.45;;;;;;;;;;5106006;28;20043;-70
2023/02/08 10:57:26;;;;;;;21.60;12.07;;;;;;;;;;5104250;28;20035;-73
2023/02/08 10:59:54;;;;;;;21.10;11.88;;;;;;;;;;5085831;28;20384;-70
2023/02/08 11:02:23;;;;;;;21.83;11.77;;;;;;;;;;5102764;28;20054;-71
2023/02/08 11:04:59;;;;;;;21.23;11.38;;;;;;;;;;5097721;28;20040;-71
2023/02/08 11:07:25;;;;;;;21.33;11.77;;;;;;;;;;5099732;28;20175;-71
2023/02/08 11:09:51;;;;;;;28.38;12.30;;;;;;;;;;5101261;28;20051;-70
2023/02/08 11:12:19;;;;;;;21.80;12.05;;;;;;;;;;5095911;28;20097;-70
2023/02/08 11:14:48;;;;;;;20.25;11.85;;;;;;;;;;5095617;28;20036;-70
2023/02/08 11:17:24;;;;;;;19.77;10.38;;;;;;;;;;5075862;28;20036;-70
2023/02/08 11:19:50;;;;;;;22.08;11.57;;;;;;;;;;5104106;28;20120;-70
2023/02/08 11:22:18;;;;;;;21.20;11.85;;;;;;;;;;5094826;28;20104;-70
2023/02/08 11:24:49;;;;;;;25.58;12.65;;;;;;;;;;5077951;28;20051;-70
2023/02/08 11:27:18;;;;;;;20.55;12.27;;;;;;;;;;5094521;28;20119;-70
2023/02/08 11:29:45;;;;;;;22.98;12.60;;;;;;;;;;5083872;28;20039;-70
2023/02/08 11:32:19;;;;;;;21.15;12.93;;;;;;;;;;5095375;28;20039;-70
2023/02/08 11:34:45;;;;;;;20.50;11.73;;;;;;;;;;5093818;28;20055;-70
2023/02/08 11:37:19;;;;;;;21.23;12.55;;;;;;;;;;5072844;28;20048;-71
2023/02/08 11:39:50;;;;;;;23.98;12.02;;;;;;;;;;5099938;28;20399;-71
2023/02/08 11:42:20;;;;;;;22.63;12.73;;;;;;;;;;5098010;28;20039;-71
2023/02/08 11:44:47;;;;;;;21.70;12.05;;;;;;;;;;5104933;28;20036;-71
2023/02/08 11:47:15;;;;;;;19.75;11.02;;;;;;;;;;5097715;28;20089;-71
2023/02/08 11:49:43;;;;;;;20.92;12.18;;;;;;;;;;5094108;28;20488;-72
2023/02/08 11:52:20;;;;;;;16.20;9.57;;;;;;;;;;5103676;28;20045;-71
2023/02/08 11:54:46;;;;;;;16.25;9.82;;;;;;;;;;5091691;28;20047;-71
2023/02/08 11:57:15;;;;;;;15.32;9.10;;;;;;;;;;5083706;28;20123;-71
2023/02/08 11:59:41;;;;;;;12.30;8.02;;;;;;;;;;5086598;28;20046;-71
2023/02/08 12:02:20;;;;;;;14.02;8.23;;;;;;;;;;5097228;28;20050;-71
2023/02/08 12:04:46;;;;;;;13.88;8.15;;;;;;;;;;5107519;28;20104;-71
2023/02/08 12:07:20;;;;;;;14.15;8.85;;;;;;;;;;5081662;28;20054;-71
2023/02/08 12:09:50;;;;;;;14.43;8.50;;;;;;;;;;5105189;28;20050;-71
2023/02/08 12:12:17;;;;;;;12.20;8.20;;;;;;;;;;5078278;28;20057;-71
2023/02/08 12:14:43;;;;;;;13.15;7.63;;;;;;;;;;5100780;28;20046;-70
2023/02/08 12:17:26;;;;;;;12.35;8.38;;;;;;;;;;5088760;28;20084;-71
2023/02/08 12:20:05;;;;;;;12.32;8.02;;;;;;;;;;5102998;28;20035;-70
2023/02/08 12:22:32;;;;;;;15.30;7.45;;;;;;;;;;5094968;28;20066;-70
2023/02/08 12:25:09;;;;;;;11.45;8.15;;;;;;;;;;5104788;28;20039;-70
2023/02/08 12:27:42;;;;;;;14.05;7.72;;;;;;;;;;5097148;28;20097;-70
2023/02/08 12:30:13;;;;;;;15.60;8.48;;;;;;;;;;5109034;28;20047;-70
2023/02/08 12:32:52;;;;;;;13.07;7.45;;;;;;;;;;5105326;28;20541;-71
2023/02/08 12:35:35;;;;;;;14.70;8.77;;;;;;;;;;5097493;28;20089;-71
2023/02/08 12:41:09;;;;;;;11.88;7.03;;;;;;;;;;5100961;28;20048;-72
2023/02/08 12:43:49;;;;;;;13.25;8.18;;;;;;;;;;5086254;28;20884;-71
2023/02/08 12:46:25;;;;;;;14.65;6.68;;;;;;;;;;5101849;28;20062;-72
2023/02/08 12:48:52;;;;;;;11.45;6.57;;;;;;;;;;5100098;28;20476;-71
2023/02/08 12:51:26;;;;;;;12.38;7.13;;;;;;;;;;5095693;28;20058;-72
2023/02/08 12:53:54;;;;;;;10.68;7.05;;;;;;;;;;5104356;28;20042;-72
2023/02/08 12:56:24;;;;;;;11.07;6.50;;;;;;;;;;5097833;28;20051;-72
2023/02/08 12:58:54;;;;;;;15.93;7.18;;;;;;;;;;5074974;28;20047;-72
2023/02/08 13:01:22;;;;;;;13.02;7.20;;;;;;;;;;5099844;28;20621;-71
2023/02/08 13:03:52;;;;;;;11.55;7.50;;;;;;;;;;5079275;28;20092;-71
2023/02/08 13:06:21;;;;;;;11.10;7.25;;;;;;;;;;5080637;28;20040;-71
2023/02/08 13:08:56;;;;;;;13.20;7.05;;;;;;;;;;5084980;28;20040;-69
2023/02/08 13:11:27;;;;;;;12.93;7.22;;;;;;;;;;5097049;28;20399;-71
2023/02/08 13:13:57;;;;;;;11.45;7.15;;;;;;;;;;5104306;28;20118;-72
2023/02/08 13:16:26;;;;;;;13.75;7.65;;;;;;;;;;5088637;28;20553;-75
2023/02/08 13:18:53;;;;;;;12.50;7.53;;;;;;;;;;5090369;28;20047;-75
2023/02/08 13:21:23;;;;;;;12.00;7.45;;;;;;;;;;5097262;28;20127;-73
2023/02/08 13:23:49;;;;;;;14.32;7.15;;;;;;;;;;5093345;28;20069;-74
2023/02/08 13:26:19;;;;;;;13.43;8.25;;;;;;;;;;5104564;28;20456;-74
2023/02/08 13:28:47;;;;;;;13.13;7.88;;;;;;;;;;5096421;28;20051;-75
2023/02/08 13:31:17;;;;;;;12.45;7.43;;;;;;;;;;5102947;28;20044;-75
2023/02/08 13:33:48;;;;;;;11.75;6.80;;;;;;;;;;5101690;28;20469;-74
2023/02/08 13:36:20;;;;;;;12.82;6.88;;;;;;;;;;5099884;28;20115;-75
2023/02/08 13:38:47;;;;;;;11.05;6.30;;;;;;;;;;5084848;28;20112;-74
2023/02/08 13:41:16;;;;;;;11.82;6.60;;;;;;;;;;5096653;28;20501;-74
2023/02/08 13:43:47;;;;;;;11.98;6.32;;;;;;;;;;5085505;28;20398;-72
2023/02/08 13:46:14;;;;;;;11.35;6.65;;;;;;;;;;5102598;28;20360;-74
2023/02/08 13:48:42;;;;;;;8.77;5.65;;;;;;;;;;5097814;28;20079;-72
2023/02/08 13:51:28;;;;;;;13.40;6.22;;;;;;;;;;5082807;28;20074;-71
2023/02/08 13:53:54;;;;;;;10.50;6.15;;;;;;;;;;5097349;28;20040;-71
2023/02/08 13:56:40;;;;;;;10.88;6.93;;;;;;;;;;5099214;28;20074;-74
2023/02/08 13:59:24;;;;;;;11.25;6.10;;;;;;;;;;5095946;28;20491;-74
2023/02/08 14:02:09;;;;;;;9.82;5.65;;;;;;;;;;5093923;28;20032;-74
2023/02/08 14:04:36;;;;;;;8.90;5.70;;;;;;;;;;5078577;28;20635;-74
2023/02/08 14:07:05;;;;;;;9.95;5.95;;;;;;;;;;5092471;28;20048;-74
2023/02/08 14:09:44;;;;;;;8.98;5.97;;;;;;;;;;5095867;28;20039;-74
2023/02/08 14:12:22;;;;;;;12.23;6.03;;;;;;;;;;5083465;28;20054;-74
2023/02/08 14:15:09;;;;;;;9.77;5.95;;;;;;;;;;5081753;28;20131;-74
2023/02/08 14:17:35;;;;;;;10.77;6.13;;;;;;;;;;5099920;28;20598;-74
2023/02/08 14:20:04;;;;;;;9.98;5.65;;;;;;;;;;5093029;28;20036;-74
2023/02/08 14:22:36;;;;;;;7.90;5.07;;;;;;;;;;5103026;28;20115;-74
2023/02/08 14:25:05;;;;;;;11.07;5.47;;;;;;;;;;5098478;28;20048;-74
2023/02/08 14:27:35;;;;;;;10.68;6.53;;;;;;;;;;5083720;28;20047;-74
2023/02/08 14:30:02;;;;;;;8.48;5.25;;;;;;;;;;5082630;28;20220;-74
2023/02/08 14:32:30;;;;;;;10.70;5.75;;;;;;;;;;5102701;28;20035;-74